Time;durP1;ratioP1;P1;durP2;ratioP2;P2;SDS_P1;SDS_P2;PMS_P1;PMS_P2;Temp;Humidity;BMP_temperature;BMP_pressure;BME280_temperature;BME280_humidity;BME280_pressure;Samples;Min_cycle;Max_cycle;Signal;HPM_P1;HPM_P2
2022/06/22 00:00:20;;;;;;;47.88;31.90;;;23.30;52.60;;;;;;5048853;28;20028;-72
2022/06/22 00:02:50;;;;;;;44.17;30.08;;;23.30;52.30;;;;;;5048693;28;20477;-73
2022/06/22 00:05:17;;;;;;;;;;;23.30;52.20;;;;;;5049059;28;20031;-73
2022/06/22 00:07:49;;;;;;;43.88;31.08;;;23.30;52.40;;;;;;5047971;28;20003;-73
2022/06/22 00:10:40;;;;;;;45.30;29.77;;;23.30;52.40;;;;;;5047489;28;20044;-73
2022/06/22 00:13:16;;;;;;;47.03;32.03;;;23.30;52.20;;;;;;5049116;28;20044;-73
2022/06/22 00:16:03;;;;;;;41.67;29.13;;;23.30;52.50;;;;;;5048903;28;20025;-73
2022/06/22 00:18:42;;;;;;;42.83;29.00;;;23.30;52.30;;;;;;5047282;28;20044;-72
2022/06/22 00:21:27;;;;;;;42.17;28.85;;;23.30;52.30;;;;;;5049052;28;20592;-73
2022/06/22 00:23:57;;;;;;;42.40;29.00;;;23.30;52.40;;;;;;5044440;28;20112;-72
2022/06/22 00:26:23;;;;;;;42.50;29.65;;;23.30;52.50;;;;;;5047913;28;20094;-73
2022/06/22 00:29:02;;;;;;;43.28;28.45;;;23.30;52.50;;;;;;5047019;28;20374;-73
2022/06/22 00:31:38;;;;;;;39.88;28.73;;;23.30;52.60;;;;;;5046354;28;20486;-73
2022/06/22 00:34:10;;;;;;;41.85;27.77;;;23.30;52.60;;;;;;5047800;28;20029;-72
2022/06/22 00:36:47;;;;;;;41.55;27.00;;;23.30;52.60;;;;;;5047329;28;20923;-73
2022/06/22 00:39:13;;;;;;;42.17;28.85;;;23.30;52.80;;;;;;5045938;28;20040;-72
2022/06/22 00:41:40;;;;;;;38.05;26.60;;;23.30;52.70;;;;;;5030847;28;20079;-72
2022/06/22 00:44:08;;;;;;;41.33;27.73;;;23.30;52.50;;;;;;5048359;28;20044;-73
2022/06/22 00:46:50;;;;;;;43.75;28.27;;;23.30;52.70;;;;;;5050767;28;20091;-73
2022/06/22 00:49:20;;;;;;;41.35;27.40;;;23.30;53.10;;;;;;5049760;28;20394;-73
2022/06/22 00:51:46;;;;;;;35.95;25.88;;;23.30;53.10;;;;;;5050707;28;20112;-73
2022/06/22 00:54:18;;;;;;;40.17;28.58;;;23.30;52.80;;;;;;5049635;28;20422;-73
2022/06/22 00:56:54;;;;;;;39.10;27.33;;;23.30;52.80;;;;;;5050511;28;20106;-72
2022/06/22 00:59:26;;;;;;;33.35;23.10;;;23.30;53.10;;;;;;5049778;28;20025;-71
2022/06/22 01:02:11;;;;;;;28.23;18.42;;;23.20;52.40;;;;;;5050887;28;20053;-71
2022/06/22 01:04:39;;;;;;;20.20;10.93;;;23.20;52.00;;;;;;5050989;28;20021;-71
2022/06/22 01:07:46;;;;;;;26.58;13.90;;;23.10;50.50;;;;;;5050579;28;20396;-71
2022/06/22 01:10:33;;;;;;;23.27;12.30;;;23.00;51.00;;;;;;5042196;28;20563;-71
2022/06/22 01:13:16;;;;;;;19.30;9.48;;;22.90;50.30;;;;;;5050502;28;20051;-71
2022/06/22 01:15:56;;;;;;;12.07;5.97;;;22.90;49.80;;;;;;5051279;28;20025;-71
2022/06/22 01:18:31;;;;;;;14.07;6.20;;;22.80;49.80;;;;;;5053420;28;20043;-71
2022/06/22 01:21:00;;;;;;;13.60;6.15;;;22.80;49.30;;;;;;5053977;28;20051;-71
2022/06/22 01:23:50;;;;;;;14.27;5.63;;;22.80;48.90;;;;;;5054097;28;20485;-71
2022/06/22 01:26:24;;;;;;;;;;;22.70;48.90;;;;;;5054249;28;20064;-71
2022/06/22 01:29:06;;;;;;;9.18;4.32;;;22.70;48.70;;;;;;5051680;28;20284;-71
2022/06/22 01:31:34;;;;;;;10.38;5.00;;;22.70;48.80;;;;;;5052626;28;20086;-71
2022/06/22 01:34:01;;;;;;;8.70;3.95;;;22.70;48.50;;;;;;5052748;28;20025;-71
2022/06/22 01:36:31;;;;;;;10.50;4.15;;;22.70;48.40;;;;;;5053675;28;20031;-71
2022/06/22 01:38:58;;;;;;;8.48;3.33;;;22.60;48.20;;;;;;5052819;28;20021;-72
2022/06/22 01:41:38;;;;;;;10.05;4.10;;;22.60;48.00;;;;;;5053523;28;20057;-71
2022/06/22 01:44:12;;;;;;;8.52;3.67;;;22.60;48.30;;;;;;5053647;28;20035;-71
2022/06/22 01:46:50;;;;;;;8.35;3.50;;;22.60;48.20;;;;;;5053448;28;20041;-71
2022/06/22 01:49:22;;;;;;;7.10;3.30;;;22.60;48.00;;;;;;5052693;28;20128;-72
2022/06/22 01:51:58;;;;;;;8.43;3.40;;;22.60;47.90;;;;;;5053594;28;20033;-71
2022/06/22 01:54:26;;;;;;;8.00;3.10;;;22.60;48.00;;;;;;5053648;28;20512;-72
2022/06/22 01:57:15;;;;;;;8.70;3.65;;;22.60;47.90;;;;;;5053220;28;20090;-71
2022/06/22 01:59:57;;;;;;;8.63;3.10;;;22.60;48.10;;;;;;5051737;28;20028;-73
2022/06/22 02:02:38;;;;;;;6.97;2.63;;;22.60;48.00;;;;;;5052992;28;20063;-71
2022/06/22 02:05:24;;;;;;;5.78;2.40;;;22.50;47.90;;;;;;5053300;28;20398;-71
2022/06/22 02:08:00;;;;;;;5.82;2.08;;;22.50;47.90;;;;;;5052234;28;20477;-71
2022/06/22 02:10:52;;;;;;;7.65;2.40;;;22.50;47.80;;;;;;5052823;28;20017;-71
2022/06/22 02:13:28;;;;;;;9.10;2.92;;;22.50;47.90;;;;;;5053164;28;20037;-71
2022/06/22 02:16:23;;;;;;;7.00;2.60;;;22.50;47.90;;;;;;5053053;28;20435;-71
2022/06/22 02:18:50;;;;;;;9.70;2.35;;;22.50;48.00;;;;;;5051993;28;20029;-71
2022/06/22 02:21:24;;;;;;;5.30;2.28;;;22.50;47.90;;;;;;5052011;28;20029;-71
2022/06/22 02:23:57;;;;;;;6.00;2.40;;;22.40;47.90;;;;;;5052748;28;20086;-71
2022/06/22 02:26:33;;;;;;;4.95;2.40;;;22.40;47.90;;;;;;5052626;28;20070;-71
2022/06/22 02:28:59;;;;;;;5.72;2.17;;;22.40;48.00;;;;;;5050415;28;20025;-72
2022/06/22 02:31:25;;;;;;;7.53;2.20;;;22.40;48.20;;;;;;5051870;28;20036;-71
2022/06/22 02:33:55;;;;;;;6.90;2.38;;;22.40;48.30;;;;;;5052688;28;20398;-72
2022/06/22 02:36:24;;;;;;;6.75;2.47;;;22.30;48.30;;;;;;5052973;28;20104;-71
2022/06/22 02:38:51;;;;;;;8.23;2.40;;;22.30;48.50;;;;;;5051599;28;20122;-72
2022/06/22 02:46:52;;;;;;;5.40;2.33;;;22.30;48.30;;;;;;5052429;28;20143;-71
2022/06/22 02:49:29;;;;;;;7.82;2.60;;;22.30;48.50;;;;;;5051489;28;20614;-71
2022/06/22 02:51:58;;;;;;;6.03;2.10;;;22.30;48.60;;;;;;5052472;28;20393;-71
2022/06/22 02:54:31;;;;;;;5.55;2.10;;;22.30;48.60;;;;;;5051907;28;20082;-71
2022/06/22 02:57:21;;;;;;;7.20;2.20;;;22.30;48.70;;;;;;5052214;28;20040;-70
2022/06/22 02:59:49;;;;;;;6.38;2.33;;;22.30;48.80;;;;;;5052212;28;20041;-71
2022/06/22 03:02:17;;;;;;;7.43;2.67;;;22.20;48.70;;;;;;5051307;28;20108;-72
2022/06/22 03:04:45;;;;;;;6.15;2.30;;;22.30;48.80;;;;;;5052158;28;20060;-71
2022/06/22 03:07:11;;;;;;;5.35;2.40;;;22.20;48.80;;;;;;5051790;28;20036;-71
2022/06/22 03:09:38;;;;;;;4.72;2.20;;;22.20;48.80;;;;;;5051152;28;20052;-71
2022/06/22 03:12:05;;;;;;;4.90;2.05;;;22.20;49.00;;;;;;5052678;28;20434;-70
2022/06/22 03:14:44;;;;;;;6.00;2.40;;;22.20;49.10;;;;;;5051801;28;20021;-71
2022/06/22 03:17:18;;;;;;;7.18;2.10;;;22.20;49.20;;;;;;5051808;28;20025;-71
2022/06/22 03:19:54;;;;;;;6.40;2.47;;;22.10;49.50;;;;;;5050317;28;20056;-71
2022/06/22 03:22:33;;;;;;;8.65;2.40;;;22.10;49.20;;;;;;5052018;28;20113;-70
2022/06/22 03:25:24;;;;;;;4.55;2.47;;;22.10;49.40;;;;;;5051753;28;20485;-71
2022/06/22 03:28:01;;;;;;;7.95;2.55;;;22.10;49.50;;;;;;5050787;28;20052;-70
2022/06/22 03:30:33;;;;;;;6.82;2.40;;;22.10;49.60;;;;;;5050034;28;20104;-70
2022/06/22 03:33:05;;;;;;;13.43;2.80;;;22.10;49.80;;;;;;5050676;28;20033;-71
2022/06/22 03:35:38;;;;;;;7.35;2.47;;;22.10;50.00;;;;;;5050362;28;20100;-71
2022/06/22 03:38:16;;;;;;;6.75;2.60;;;22.10;50.00;;;;;;5049078;28;20440;-71
2022/06/22 03:41:02;;;;;;;5.07;1.95;;;22.00;50.00;;;;;;5051399;28;20029;-71
2022/06/22 03:43:31;;;;;;;7.05;2.53;;;22.00;50.00;;;;;;5050370;28;20033;-71
2022/06/22 03:46:03;;;;;;;7.50;2.60;;;22.10;50.10;;;;;;5050235;28;20039;-71
2022/06/22 03:48:35;;;;;;;5.40;2.55;;;22.00;50.10;;;;;;5050818;28;20024;-71
2022/06/22 03:51:10;;;;;;;10.95;2.97;;;22.20;59.70;;;;;;5049925;28;20100;-71
2022/06/22 03:53:43;;;;;;;9.15;3.13;;;22.20;54.30;;;;;;5051475;28;20032;-71
2022/06/22 03:56:15;;;;;;;8.27;2.78;;;22.20;53.30;;;;;;5050960;28;20576;-71
2022/06/22 03:58:45;;;;;;;5.65;2.63;;;22.20;52.50;;;;;;5050502;28;20029;-71
2022/06/22 04:01:12;;;;;;;6.15;2.83;;;22.20;52.00;;;;;;5049696;28;20021;-71
2022/06/22 04:03:38;;;;;;;6.20;2.72;;;22.20;51.30;;;;;;5051435;28;20120;-71
2022/06/22 04:06:05;;;;;;;8.48;3.22;;;22.20;50.90;;;;;;5051029;28;20028;-71
2022/06/22 04:08:39;;;;;;;9.55;3.53;;;22.10;50.90;;;;;;5050389;28;20486;-71
2022/06/22 04:11:16;;;;;;;13.05;4.82;;;22.10;50.90;;;;;;5050961;28;20021;-71
2022/06/22 04:13:57;;;;;;;12.73;4.82;;;22.10;51.30;;;;;;5051118;28;20021;-71
2022/06/22 04:16:41;;;;;;;14.27;5.85;;;22.10;50.70;;;;;;5051189;28;20053;-71
2022/06/22 04:19:16;;;;;;;10.35;4.57;;;22.10;50.80;;;;;;5050281;28;20075;-71
2022/06/22 04:21:46;;;;;;;9.98;4.07;;;22.10;50.70;;;;;;5049539;28;20025;-71
2022/06/22 04:24:29;;;;;;;14.05;4.47;;;22.10;50.90;;;;;;5051083;28;20061;-72
2022/06/22 04:27:04;;;;;;;7.85;3.42;;;22.10;50.90;;;;;;5050689;28;20485;-71
2022/06/22 04:29:35;;;;;;;6.10;3.08;;;22.10;51.00;;;;;;5050366;28;20040;-71
2022/06/22 04:32:10;;;;;;;7.03;3.22;;;22.10;51.30;;;;;;5049565;28;20036;-70
2022/06/22 04:34:45;;;;;;;7.90;2.83;;;22.10;51.30;;;;;;5050621;28;20029;-71
2022/06/22 04:37:27;;;;;;;7.45;2.97;;;22.10;51.30;;;;;;5050326;28;20032;-70
2022/06/22 04:40:25;;;;;;;9.07;3.20;;;22.10;51.50;;;;;;5050869;28;20029;-70
2022/06/22 04:42:59;;;;;;;10.32;2.90;;;22.10;51.80;;;;;;5050600;28;20313;-71
2022/06/22 04:45:33;;;;;;;7.97;2.67;;;22.10;52.00;;;;;;5049479;28;20401;-73
2022/06/22 04:48:26;;;;;;;10.00;3.60;;;22.10;52.00;;;;;;5049725;28;20029;-71
2022/06/22 04:50:58;;;;;;;6.72;3.50;;;22.10;52.00;;;;;;5049423;28;20565;-71
2022/06/22 04:53:43;;;;;;;7.97;3.33;;;22.10;51.90;;;;;;5054804;28;20029;-71
2022/06/22 04:56:14;;;;;;;8.15;3.88;;;22.10;52.00;;;;;;5054936;28;20025;-71
2022/06/22 04:58:42;;;;;;;10.80;4.00;;;22.10;52.10;;;;;;5054024;28;20034;-72
2022/06/22 05:01:23;;;;;;;9.13;3.40;;;22.10;52.30;;;;;;5054688;28;20032;-71
2022/06/22 05:03:53;;;;;;;7.15;3.55;;;22.10;52.40;;;;;;5054586;28;20029;-72
2022/06/22 05:06:24;;;;;;;7.05;2.80;;;22.10;52.30;;;;;;5054370;28;20032;-71
2022/06/22 05:09:05;;;;;;;12.45;5.68;;;22.10;52.30;;;;;;5053531;28;20064;-71
2022/06/22 05:11:39;;;;;;;8.75;4.22;;;22.20;52.40;;;;;;5053360;28;20543;-71
2022/06/22 05:14:17;;;;;;;13.20;3.90;;;22.20;52.60;;;;;;5052937;28;20033;-71
2022/06/22 05:17:01;;;;;;;16.45;8.70;;;22.20;52.80;;;;;;5054312;28;20052;-72
2022/06/22 05:19:50;;;;;;;25.33;16.20;;;22.20;52.80;;;;;;5052381;28;20029;-71
2022/06/22 05:22:18;;;;;;;26.23;15.85;;;22.20;53.00;;;;;;5054002;28;20033;-71
2022/06/22 05:24:53;;;;;;;23.50;15.73;;;22.20;52.80;;;;;;5053979;28;20041;-72
2022/06/22 05:27:23;;;;;;;27.33;17.42;;;22.20;53.00;;;;;;5053203;28;20037;-71
2022/06/22 05:29:58;;;;;;;21.65;12.77;;;22.30;52.90;;;;;;5053937;28;20103;-72
2022/06/22 05:32:30;;;;;;;22.42;10.32;;;22.30;52.60;;;;;;5052464;28;20025;-71
2022/06/22 05:34:57;;;;;;;30.40;16.70;;;22.30;53.00;;;;;;5053828;28;20397;-71
2022/06/22 05:37:34;;;;;;;47.03;28.80;;;22.30;52.30;;;;;;5051687;28;20041;-71
2022/06/22 05:40:01;;;;;;;45.70;28.75;;;22.30;52.30;;;;;;5053826;28;20084;-71
2022/06/22 05:42:29;;;;;;;32.10;19.58;;;22.30;52.40;;;;;;5052617;28;20036;-71
2022/06/22 05:44:55;;;;;;;31.90;19.00;;;22.40;52.30;;;;;;5053579;28;20033;-71
2022/06/22 05:47:30;;;;;;;37.30;22.70;;;22.40;52.30;;;;;;5052491;28;20040;-71
2022/06/22 05:50:04;;;;;;;32.60;18.95;;;22.40;52.50;;;;;;5053483;28;20060;-71
2022/06/22 05:52:47;;;;;;;22.65;12.48;;;22.40;51.70;;;;;;5053451;28;20025;-71
2022/06/22 05:55:28;;;;;;;23.33;12.40;;;22.50;52.30;;;;;;5052072;28;20504;-71
2022/06/22 05:58:00;;;;;;;19.77;9.30;;;22.50;53.20;;;;;;5052344;28;20043;-71
2022/06/22 06:00:33;;;;;;;18.30;8.52;;;22.60;52.40;;;;;;5052275;28;20501;-71
2022/06/22 06:03:10;;;;;;;18.88;10.00;;;22.60;53.20;;;;;;5052775;28;20029;-72
2022/06/22 06:05:48;;;;;;;31.15;16.80;;;22.60;52.90;;;;;;5052049;28;20036;-71
2022/06/22 06:08:51;;;;;;;28.73;13.25;;;22.60;53.20;;;;;;5051058;28;20037;-72
2022/06/22 06:11:22;;;;;;;33.45;14.30;;;22.50;53.60;;;;;;5050136;28;20122;-71
2022/06/22 06:14:05;;;;;;;22.70;12.55;;;22.60;53.20;;;;;;5035532;28;20021;-72
2022/06/22 06:16:46;;;;;;;24.98;10.80;;;22.60;53.00;;;;;;5053004;28;20029;-72
2022/06/22 06:19:17;;;;;;;33.35;11.23;;;22.60;53.60;;;;;;5051867;28;20047;-71
2022/06/22 06:21:45;;;;;;;18.95;10.68;;;22.60;53.50;;;;;;5053072;28;20107;-71
2022/06/22 06:24:17;;;;;;;29.90;10.65;;;22.60;54.10;;;;;;5051488;28;20033;-72
2022/06/22 06:30:05;;;;;;;22.02;9.73;;;22.60;53.40;;;;;;5052656;28;20021;-70
2022/06/22 06:32:46;;;;;;;19.17;10.20;;;22.60;53.10;;;;;;5052600;28;20155;-70
2022/06/22 06:35:30;;;;;;;21.92;8.27;;;22.60;53.40;;;;;;5053139;28;20057;-71
2022/06/22 06:38:40;;;;;;;19.58;7.25;;;22.70;53.20;;;;;;5051666;28;20120;-71
2022/06/22 06:41:22;;;;;;;;;;;22.70;52.90;;;;;;5009911;28;20026;-72
2022/06/22 06:43:53;;;;;;;23.98;6.65;;;22.80;53.10;;;;;;5009889;28;20328;-72
2022/06/22 06:46:36;;;;;;;17.60;6.55;;;22.80;53.30;;;;;;5035839;28;20033;-71
2022/06/22 06:49:25;;;;;;;18.60;6.93;;;22.80;53.00;;;;;;5051629;28;20039;-70
2022/06/22 06:51:57;;;;;;;16.45;6.07;;;22.90;53.90;;;;;;5052385;28;20033;-70
2022/06/22 06:54:59;;;;;;;18.52;6.15;;;23.00;53.50;;;;;;5048843;28;20517;-69
2022/06/22 06:57:24;;;;;;;19.98;6.65;;;23.00;53.90;;;;;;5048471;28;20422;-70
2022/06/22 06:59:54;;;;;;;19.85;6.85;;;23.00;53.60;;;;;;5050017;28;20108;-70
2022/06/22 07:02:31;;;;;;;17.63;6.35;;;23.00;53.70;;;;;;5050879;28;20040;-70
2022/06/22 07:04:59;;;;;;;14.50;5.60;;;23.00;54.10;;;;;;5050577;28;20086;-69
2022/06/22 07:07:45;;;;;;;17.23;6.25;;;23.00;53.50;;;;;;5050883;28;20032;-68
2022/06/22 07:10:23;;;;;;;16.48;5.88;;;23.00;53.80;;;;;;5050747;28;20029;-68
2022/06/22 07:13:01;;;;;;;19.75;5.55;;;23.00;53.80;;;;;;5049918;28;20029;-69
2022/06/22 07:15:40;;;;;;;17.10;5.85;;;23.10;54.50;;;;;;5051844;28;20025;-69
2022/06/22 07:18:30;;;;;;;16.17;4.72;;;23.00;53.60;;;;;;5049486;28;20033;-69
2022/06/22 07:21:40;;;;;;;15.63;5.80;;;23.10;52.80;;;;;;5051986;28;20036;-70
2022/06/22 07:24:18;;;;;;;15.13;5.18;;;23.10;53.10;;;;;;5042695;28;20099;-70
2022/06/22 07:27:08;;;;;;;14.85;5.60;;;23.10;53.60;;;;;;5051686;28;20402;-69
2022/06/22 07:29:59;;;;;;;12.05;5.40;;;23.10;53.80;;;;;;5045475;28;20127;-69
2022/06/22 07:32:48;;;;;;;15.75;5.35;;;23.10;53.30;;;;;;5050268;28;20056;-69
2022/06/22 07:35:28;;;;;;;11.52;4.00;;;23.10;53.00;;;;;;5050567;28;20095;-69
2022/06/22 07:38:07;;;;;;;22.23;4.72;;;23.10;52.60;;;;;;5050569;28;20040;-69
2022/06/22 07:40:34;;;;;;;17.80;4.17;;;23.10;52.00;;;;;;5050247;28;20048;-69
2022/06/22 07:43:01;;;;;;;16.08;4.75;;;23.10;52.00;;;;;;5050140;28;20504;-70
2022/06/22 07:45:29;;;;;;;23.88;8.88;;;23.10;51.60;;;;;;5050111;28;20204;-70
2022/06/22 07:48:17;;;;;;;29.88;11.10;;;23.10;51.60;;;;;;5050475;28;20028;-71
2022/06/22 07:50:51;;;;;;;21.63;8.43;;;23.10;50.90;;;;;;5051403;28;20359;-70
2022/06/22 07:53:38;;;;;;;22.33;6.97;;;23.20;51.80;;;;;;5050098;28;20394;-70
2022/06/22 07:56:13;;;;;;;20.33;6.45;;;23.20;52.40;;;;;;5050984;28;20036;-69
2022/06/22 07:58:49;;;;;;;20.92;7.10;;;23.20;52.00;;;;;;5050516;28;20033;-69
2022/06/22 08:01:19;;;;;;;23.80;6.78;;;23.20;52.40;;;;;;5051295;28;20529;-71
2022/06/22 08:03:55;;;;;;;19.77;6.28;;;23.20;51.70;;;;;;5049967;28;20040;-70
2022/06/22 08:06:32;;;;;;;22.10;7.07;;;23.20;51.30;;;;;;5054121;28;20147;-69
2022/06/22 08:09:05;;;;;;;18.30;5.53;;;23.20;52.00;;;;;;5049092;28;20493;-70
2022/06/22 08:11:38;;;;;;;18.55;6.20;;;23.20;52.30;;;;;;5051477;28;20069;-70
2022/06/22 08:14:08;;;;;;;19.27;4.10;;;23.20;52.40;;;;;;5053231;28;20108;-70
2022/06/22 08:16:41;;;;;;;;;;;23.20;50.50;;;;;;5049999;28;20071;-71
2022/06/22 08:19:09;;;;;;;20.73;5.75;;;23.20;50.30;;;;;;5048914;28;19909;-71
2022/06/22 08:21:41;;;;;;;14.05;4.75;;;23.30;53.10;;;;;;5049555;28;20032;-71
2022/06/22 08:24:09;;;;;;;14.25;4.80;;;23.30;52.30;;;;;;5050855;28;20108;-71
2022/06/22 08:26:36;;;;;;;15.90;4.70;;;23.30;51.20;;;;;;5055484;28;20033;-71
2022/06/22 08:29:02;;;;;;;17.45;4.43;;;23.30;50.70;;;;;;5054141;28;20499;-70
2022/06/22 08:31:38;;;;;;;20.33;4.72;;;23.20;51.60;;;;;;5053884;28;20491;-70
2022/06/22 08:34:10;;;;;;;16.42;4.38;;;23.20;50.80;;;;;;5055254;28;20029;-71
2022/06/22 08:36:45;;;;;;;26.30;4.85;;;23.30;50.50;;;;;;5055490;28;20033;-70
2022/06/22 08:39:29;;;;;;;14.80;3.92;;;23.30;50.70;;;;;;5050837;28;20099;-70
2022/06/22 08:42:19;;;;;;;15.85;4.82;;;23.30;49.40;;;;;;5053777;28;20112;-70
2022/06/22 08:45:13;;;;;;;19.98;4.10;;;23.30;48.50;;;;;;5037476;28;20033;-70
2022/06/22 08:48:04;;;;;;;8.73;2.63;;;23.30;50.00;;;;;;5054138;28;20390;-71
2022/06/22 08:51:01;;;;;;;12.45;2.60;;;23.30;47.40;;;;;;5053628;28;20068;-70
2022/06/22 08:53:35;;;;;;;9.82;3.33;;;23.40;48.30;;;;;;5021047;28;20036;-70
2022/06/22 08:56:23;;;;;;;14.90;3.17;;;23.40;48.60;;;;;;5054922;28;20079;-70
2022/06/22 08:59:21;;;;;;;12.93;3.10;;;23.40;48.90;;;;;;5054568;28;20060;-71
2022/06/22 09:01:56;;;;;;;28.33;4.05;;;23.40;47.90;;;;;;5038778;28;20158;-74
2022/06/22 09:05:05;;;;;;;20.80;3.28;;;23.40;48.00;;;;;;5056521;28;20071;-73
2022/06/22 09:07:44;;;;;;;15.90;4.30;;;23.30;50.00;;;;;;4977352;28;20030;-73
2022/06/22 09:10:30;;;;;;;20.15;3.05;;;23.30;49.00;;;;;;5050838;28;20056;-74
2022/06/22 09:13:30;;;;;;;12.80;3.67;;;23.20;49.70;;;;;;5053792;28;20078;-73
2022/06/22 09:16:22;;;;;;;;;;;23.20;49.60;;;;;;5042901;28;20025;-74
2022/06/22 09:18:55;;;;;;;15.05;3.70;;;23.20;50.00;;;;;;5037110;28;19955;-73
2022/06/22 09:21:39;;;;;;;17.45;3.55;;;23.20;50.00;;;;;;5054420;28;20067;-73
2022/06/22 09:24:42;;;;;;;13.70;3.33;;;23.20;50.10;;;;;;5054125;28;20489;-73
2022/06/22 09:27:19;;;;;;;14.02;3.30;;;23.20;50.50;;;;;;5042503;28;20041;-72
2022/06/22 09:30:23;;;;;;;20.52;3.75;;;23.10;50.60;;;;;;5053857;28;20028;-73
2022/06/22 09:33:36;;;;;;;20.80;4.07;;;23.20;50.70;;;;;;5050636;28;20485;-73
2022/06/22 09:36:31;;;;;;;13.32;3.03;;;23.10;50.70;;;;;;5042359;28;20095;-73
2022/06/22 09:39:20;;;;;;;13.15;3.42;;;23.20;50.90;;;;;;5045926;28;20037;-72
2022/06/22 09:42:23;;;;;;;13.27;3.00;;;23.20;51.10;;;;;;5033201;28;20045;-73
2022/06/22 09:45:34;;;;;;;21.85;3.63;;;23.20;51.00;;;;;;5050788;28;20536;-73
2022/06/22 09:48:29;;;;;;;15.50;3.47;;;23.20;51.30;;;;;;5050500;28;20118;-72
2022/06/22 09:51:03;;;;;;;11.52;3.03;;;23.20;51.40;;;;;;5013703;28;20037;-72
2022/06/22 09:53:39;;;;;;;10.68;3.28;;;23.20;51.60;;;;;;5049990;28;20031;-71
2022/06/22 09:56:20;;;;;;;21.23;3.33;;;23.20;51.60;;;;;;5050812;28;20157;-71
2022/06/22 09:59:13;;;;;;;14.55;3.40;;;23.20;51.70;;;;;;5050837;28;20477;-72
2022/06/22 10:02:01;;;;;;;13.07;3.05;;;23.20;51.80;;;;;;5053081;28;20057;-72
2022/06/22 10:04:50;;;;;;;20.33;3.25;;;23.20;52.10;;;;;;5053837;28;20025;-72
2022/06/22 10:07:19;;;;;;;14.03;3.07;;;23.20;52.00;;;;;;5053024;28;20032;-71
2022/06/22 10:10:08;;;;;;;11.88;3.47;;;23.20;52.20;;;;;;5053169;28;20065;-72
2022/06/22 10:12:55;;;;;;;18.65;3.78;;;23.20;52.30;;;;;;5052909;28;20067;-73
2022/06/22 10:15:47;;;;;;;14.32;3.28;;;23.30;52.50;;;;;;5051691;28;20064;-72
2022/06/22 10:18:28;;;;;;;14.45;3.35;;;23.20;52.50;;;;;;5051048;28;20072;-72
2022/06/22 10:21:24;;;;;;;13.68;3.00;;;23.30;52.70;;;;;;5052902;28;20036;-72
2022/06/22 10:24:15;;;;;;;15.27;3.40;;;23.30;52.70;;;;;;5051769;28;20158;-70
2022/06/22 10:26:41;;;;;;;25.10;4.30;;;23.30;52.50;;;;;;5051295;28;20036;-70
2022/06/22 10:29:12;;;;;;;28.88;4.45;;;23.40;50.60;;;;;;5051963;28;20070;-70
2022/06/22 10:32:10;;;;;;;21.70;3.40;;;23.50;50.50;;;;;;5052691;28;20063;-71
2022/06/22 10:35:02;;;;;;;19.30;3.53;;;23.50;50.30;;;;;;5052719;28;20056;-71
2022/06/22 10:37:52;;;;;;;13.60;3.25;;;23.60;50.20;;;;;;5051566;28;20021;-70
2022/06/22 10:46:45;;;;;;;11.60;2.65;;;23.60;46.60;;;;;;5052432;28;20033;-71
2022/06/22 10:49:42;;;;;;;20.02;8.30;;;23.60;47.90;;;;;;5051578;28;20025;-72
2022/06/22 10:52:36;;;;;;;28.88;15.48;;;23.60;46.30;;;;;;5051210;28;20021;-72
2022/06/22 10:55:26;;;;;;;27.92;15.55;;;23.70;47.30;;;;;;5052508;28;20029;-72
2022/06/22 10:58:26;;;;;;;22.02;11.95;;;23.60;45.90;;;;;;5051090;28;20021;-71
2022/06/22 11:01:13;;;;;;;19.80;8.60;;;23.70;45.70;;;;;;5051060;28;20490;-71
2022/06/22 11:04:07;;;;;;;16.05;6.72;;;23.70;45.10;;;;;;5052096;28;20108;-72
2022/06/22 11:06:51;;;;;;;17.05;6.82;;;23.70;44.40;;;;;;5052200;28;20485;-71
2022/06/22 11:09:37;;;;;;;11.02;4.68;;;23.70;44.90;;;;;;5051182;28;20120;-71
2022/06/22 11:12:16;;;;;;;10.98;4.68;;;23.70;44.40;;;;;;5034605;28;20028;-71
2022/06/22 11:15:14;;;;;;;10.30;4.20;;;23.80;44.20;;;;;;5050540;28;20108;-71
2022/06/22 11:18:04;;;;;;;7.38;4.00;;;23.80;43.90;;;;;;5041620;28;20130;-72
2022/06/22 11:20:48;;;;;;;;;;;23.70;44.20;;;;;;5050921;28;20029;-71
2022/06/22 11:23:33;;;;;;;6.30;2.45;;;23.70;43.00;;;;;;5051789;28;19938;-72
2022/06/22 11:32:19;;;;;;;7.57;2.70;;;23.70;43.10;;;;;;5051690;28;20056;-72
2022/06/22 11:34:53;;;;;;;11.95;3.63;;;23.70;43.20;;;;;;5051585;28;20555;-72
2022/06/22 11:37:49;;;;;;;5.78;2.50;;;23.70;43.10;;;;;;5050554;28;20107;-72
2022/06/22 11:40:23;;;;;;;11.13;3.70;;;23.70;43.30;;;;;;5051404;28;20075;-72
2022/06/22 11:43:04;;;;;;;12.45;3.85;;;23.70;44.50;;;;;;5051369;28;20025;-72
2022/06/22 11:45:51;;;;;;;42.80;24.10;;;23.70;44.00;;;;;;5051702;28;20029;-71
2022/06/22 11:48:56;;;;;;;48.63;29.75;;;23.80;42.60;;;;;;5049389;28;20036;-72
2022/06/22 11:51:45;;;;;;;37.42;18.95;;;23.80;45.00;;;;;;5049703;28;20035;-71
2022/06/22 11:54:42;;;;;;;26.10;13.27;;;23.80;42.10;;;;;;5051311;28;20078;-71
2022/06/22 11:57:33;;;;;;;22.70;10.60;;;23.70;42.20;;;;;;5033197;28;20052;-72
2022/06/22 12:00:12;;;;;;;17.40;8.13;;;23.70;43.20;;;;;;5049059;28;20059;-72
2022/06/22 12:02:58;;;;;;;21.52;9.40;;;23.70;41.90;;;;;;5050606;28;20130;-71
2022/06/22 12:05:48;;;;;;;11.75;4.75;;;23.70;42.00;;;;;;5051293;28;20067;-72
2022/06/22 12:08:31;;;;;;;12.90;5.95;;;23.80;41.00;;;;;;5039446;28;20044;-71
2022/06/22 12:11:00;;;;;;;16.10;6.20;;;23.80;42.90;;;;;;5049740;28;20033;-72
2022/06/22 12:13:37;;;;;;;8.40;3.53;;;23.80;42.00;;;;;;5051036;28;20394;-72
2022/06/22 12:16:25;;;;;;;9.93;4.43;;;23.80;42.10;;;;;;5051236;28;20502;-71
2022/06/22 12:19:06;;;;;;;7.13;3.50;;;23.80;41.10;;;;;;5049983;28;20033;-72
2022/06/22 12:21:47;;;;;;;12.90;5.00;;;23.80;42.20;;;;;;5051021;28;20415;-72
2022/06/22 12:24:33;;;;;;;15.95;5.22;;;23.80;41.80;;;;;;5049431;28;20553;-72
2022/06/22 12:27:05;;;;;;;11.13;4.90;;;23.70;41.00;;;;;;5049687;28;20053;-72
2022/06/22 12:29:52;;;;;;;9.30;3.90;;;23.80;42.90;;;;;;5049574;28;20029;-72
2022/06/22 12:32:24;;;;;;;7.85;2.90;;;23.70;41.40;;;;;;5051600;28;20025;-72
2022/06/22 12:35:04;;;;;;;7.78;3.47;;;23.80;41.20;;;;;;5033073;28;20029;-72
2022/06/22 12:37:40;;;;;;;11.90;5.25;;;23.80;42.00;;;;;;5050301;28;20393;-72
2022/06/22 12:40:26;;;;;;;7.50;3.17;;;23.80;41.80;;;;;;5050408;28;20079;-72
2022/06/22 12:43:30;;;;;;;8.25;2.90;;;23.80;39.80;;;;;;5049716;28;20116;-72
2022/06/22 12:46:25;;;;;;;8.85;2.95;;;23.80;39.30;;;;;;5038134;28;20112;-72
2022/06/22 12:49:19;;;;;;;7.00;2.40;;;23.80;39.20;;;;;;5048459;28;20037;-71
2022/06/22 12:51:51;;;;;;;5.22;2.33;;;23.80;40.40;;;;;;5049445;28;20098;-71
2022/06/22 12:54:32;;;;;;;11.18;3.20;;;23.80;40.00;;;;;;5050578;28;20074;-70
2022/06/22 12:57:11;;;;;;;9.10;3.15;;;23.80;40.30;;;;;;5049468;28;20029;-71
2022/06/22 12:59:51;;;;;;;5.30;2.08;;;23.80;41.10;;;;;;5050030;28;20033;-71
2022/06/22 13:02:24;;;;;;;9.82;2.80;;;23.80;40.80;;;;;;5049385;28;20603;-72
2022/06/22 13:04:57;;;;;;;6.45;2.28;;;23.70;41.50;;;;;;5050500;28;20132;-71
2022/06/22 13:07:23;;;;;;;8.80;3.85;;;23.70;40.70;;;;;;5049641;28;20376;-71
2022/06/22 13:09:49;;;;;;;14.48;7.03;;;23.70;41.10;;;;;;5050052;28;20036;-72
2022/06/22 13:12:37;;;;;;;18.00;9.05;;;23.70;40.80;;;;;;5053912;28;20060;-71
2022/06/22 13:15:18;;;;;;;15.27;6.55;;;23.60;42.10;;;;;;5054252;28;20036;-71
2022/06/22 13:18:17;;;;;;;18.85;5.47;;;23.60;41.60;;;;;;5053693;28;20360;-71
2022/06/22 13:20:49;;;;;;;18.20;5.53;;;23.60;41.80;;;;;;5034466;28;20127;-71
2022/06/22 13:23:40;;;;;;;25.60;5.22;;;23.60;42.90;;;;;;5053009;28;20021;-71
2022/06/22 13:26:29;;;;;;;16.40;4.28;;;23.60;42.00;;;;;;5051373;28;20076;-72
2022/06/22 13:29:21;;;;;;;18.40;3.50;;;23.60;41.20;;;;;;5052513;28;20040;-72
2022/06/22 13:31:49;;;;;;;14.65;2.97;;;23.70;41.60;;;;;;5052931;28;20349;-72
2022/06/22 13:34:21;;;;;;;8.07;2.83;;;23.60;40.40;;;;;;5053322;28;20132;-71
2022/06/22 13:37:00;;;;;;;7.47;2.92;;;23.70;40.70;;;;;;5052650;28;20079;-72
2022/06/22 13:39:50;;;;;;;;;;;23.60;41.00;;;;;;5052561;28;20040;-72
2022/06/22 13:42:38;;;;;;;6.85;2.10;;;23.70;41.60;;;;;;5053865;28;20270;-72
2022/06/22 13:45:27;;;;;;;7.07;2.40;;;23.70;42.20;;;;;;5053721;28;20036;-72
2022/06/22 13:48:15;;;;;;;6.22;2.38;;;23.70;39.90;;;;;;5052280;28;20040;-72
2022/06/22 13:51:46;;;;;;;8.63;2.67;;;23.80;40.70;;;;;;5053625;28;20033;-72
2022/06/22 13:54:18;;;;;;;4.15;2.03;;;23.80;40.80;;;;;;5052121;28;20029;-71
2022/06/22 13:57:03;;;;;;;5.50;2.13;;;23.80;41.20;;;;;;5052293;28;20243;-71
2022/06/22 13:59:40;;;;;;;9.55;2.53;;;23.80;41.00;;;;;;5052461;28;20428;-72
2022/06/22 14:02:33;;;;;;;8.52;2.20;;;23.80;40.70;;;;;;5052117;28;20071;-72
2022/06/22 14:05:15;;;;;;;3.40;1.73;;;23.80;40.60;;;;;;5053005;28;20063;-71